Time;durP1;ratioP1;P1;durP2;ratioP2;P2;SDS_P1;SDS_P2;PMS_P1;PMS_P2;Temp;Humidity;BMP_temperature;BMP_pressure;BME280_temperature;BME280_humidity;BME280_pressure;Samples;Min_cycle;Max_cycle;Signal;HPM_P1;HPM_P2
2023/11/27 00:00:52;;;;;;;3.23;2.43;;;7.40;99.90;;;;;;5041207;28;20217;-62
2023/11/27 00:03:19;;;;;;;3.03;2.23;;;7.40;99.90;;;;;;5042422;28;20221;-62
2023/11/27 00:05:45;;;;;;;3.57;2.50;;;7.30;99.90;;;;;;5044241;28;20216;-63
2023/11/27 00:08:12;;;;;;;3.07;2.10;;;7.20;99.90;;;;;;5043990;28;20205;-63
2023/11/27 00:10:39;;;;;;;4.10;2.57;;;7.20;99.90;;;;;;5041080;28;20213;-63
2023/11/27 00:13:06;;;;;;;3.27;2.13;;;7.10;99.90;;;;;;5040804;28;20705;-63
2023/11/27 00:15:34;;;;;;;3.67;2.30;;;7.10;99.90;;;;;;5044078;28;20210;-62
2023/11/27 00:18:00;;;;;;;3.57;2.10;;;7.00;99.90;;;;;;5044121;28;20582;-63
2023/11/27 00:20:27;;;;;;;3.27;2.00;;;7.00;99.90;;;;;;5041456;28;20213;-63
2023/11/27 00:22:54;;;;;;;2.70;2.20;;;7.00;99.90;;;;;;5040961;28;20280;-63
2023/11/27 00:25:22;;;;;;;3.10;2.20;;;7.00;99.90;;;;;;5042605;28;20297;-65
2023/11/27 00:27:49;;;;;;;2.90;2.23;;;6.90;99.90;;;;;;5044502;28;20228;-63
2023/11/27 00:30:16;;;;;;;2.60;2.33;;;6.90;99.90;;;;;;5042909;28;20213;-61
2023/11/27 00:32:44;;;;;;;4.10;2.90;;;6.90;99.90;;;;;;5040344;28;20615;-63
2023/11/27 00:35:11;;;;;;;3.70;2.77;;;6.90;99.90;;;;;;5040792;28;20313;-62
2023/11/27 00:37:38;;;;;;;4.93;2.90;;;6.80;99.90;;;;;;5044227;28;20232;-64
2023/11/27 00:40:05;;;;;;;5.07;3.30;;;6.70;99.90;;;;;;5044167;28;20212;-62
2023/11/27 00:42:32;;;;;;;4.17;2.90;;;6.70;99.90;;;;;;5040616;28;20222;-63
2023/11/27 00:44:59;;;;;;;6.03;3.00;;;6.70;99.90;;;;;;5040500;28;20715;-62
2023/11/27 00:47:26;;;;;;;3.93;2.40;;;6.70;99.90;;;;;;5042261;28;20203;-63
2023/11/27 00:49:54;;;;;;;3.17;2.60;;;6.70;99.90;;;;;;5043574;28;20202;-62
2023/11/27 00:52:20;;;;;;;4.10;2.43;;;6.60;99.90;;;;;;5042027;28;20226;-62
2023/11/27 00:54:47;;;;;;;2.63;2.23;;;6.60;99.90;;;;;;5037431;28;20213;-62
2023/11/27 00:57:14;;;;;;;3.30;2.37;;;6.60;99.90;;;;;;5041950;28;20236;-63
2023/11/27 00:59:41;;;;;;;3.10;2.33;;;6.60;99.90;;;;;;5040353;28;20232;-63
2023/11/27 01:02:07;;;;;;;4.00;2.80;;;6.60;99.90;;;;;;5040138;28;20223;-63
2023/11/27 01:04:34;;;;;;;4.43;2.93;;;6.60;99.90;;;;;;5043216;28;20694;-63
2023/11/27 01:07:02;;;;;;;6.60;3.73;;;6.60;99.90;;;;;;5043223;28;20213;-62
2023/11/27 01:09:29;;;;;;;5.13;3.00;;;6.60;99.90;;;;;;5040942;28;20213;-62
2023/11/27 01:11:55;;;;;;;3.07;2.60;;;6.60;99.90;;;;;;5040151;28;20908;-62
2023/11/27 01:14:23;;;;;;;3.57;2.37;;;6.60;99.90;;;;;;5041503;28;20592;-62
2023/11/27 01:16:50;;;;;;;3.17;2.07;;;6.50;99.90;;;;;;5043304;28;20213;-62
2023/11/27 01:19:17;;;;;;;2.67;2.00;;;6.50;99.90;;;;;;5042345;28;20230;-63
2023/11/27 01:21:44;;;;;;;3.33;2.37;;;6.50;99.90;;;;;;5039644;28;20230;-64
2023/11/27 01:24:12;;;;;;;3.83;2.47;;;6.50;99.90;;;;;;5039743;28;20254;-64
2023/11/27 01:26:38;;;;;;;3.20;2.60;;;6.50;99.90;;;;;;5043078;28;20210;-64
2023/11/27 01:29:05;;;;;;;3.20;2.40;;;6.50;99.90;;;;;;5042914;28;20202;-63
2023/11/27 01:31:32;;;;;;;3.90;2.67;;;6.60;99.90;;;;;;5040179;28;20202;-63
2023/11/27 01:33:58;;;;;;;4.50;2.47;;;6.60;99.90;;;;;;5039488;28;20711;-63
2023/11/27 01:36:25;;;;;;;3.43;2.20;;;6.60;99.90;;;;;;5041420;28;20276;-62
2023/11/27 01:38:51;;;;;;;3.97;2.30;;;6.60;99.90;;;;;;5043087;28;20283;-63
2023/11/27 01:41:19;;;;;;;3.93;2.33;;;6.60;99.90;;;;;;5041880;28;20205;-63
2023/11/27 01:43:46;;;;;;;2.63;2.30;;;6.60;99.90;;;;;;5039872;28;20230;-63
2023/11/27 01:46:23;;;;;;;3.67;2.00;;;6.60;99.90;;;;;;5039267;28;20217;-62
2023/11/27 01:48:51;;;;;;;2.17;1.70;;;6.60;99.90;;;;;;5042940;28;20236;-62
2023/11/27 01:51:17;;;;;;;2.50;2.00;;;6.60;99.90;;;;;;5041701;28;20622;-62
2023/11/27 01:53:46;;;;;;;2.57;2.00;;;6.50;99.90;;;;;;5039537;28;20222;-62
2023/11/27 01:56:14;;;;;;;2.03;1.70;;;6.50;99.90;;;;;;5039255;28;20233;-61
2023/11/27 01:58:42;;;;;;;3.43;1.80;;;6.50;99.90;;;;;;5042683;28;20253;-62
2023/11/27 02:01:09;;;;;;;2.73;1.90;;;6.60;99.90;;;;;;5042405;28;20683;-64
2023/11/27 02:03:36;;;;;;;3.73;2.10;;;6.50;99.90;;;;;;5039236;28;20230;-62
2023/11/27 02:06:03;;;;;;;3.47;2.10;;;6.50;99.90;;;;;;5039127;28;20671;-64
2023/11/27 02:08:31;;;;;;;3.13;2.47;;;6.50;99.90;;;;;;5043482;28;20228;-63
2023/11/27 02:10:58;;;;;;;3.17;2.00;;;6.50;99.90;;;;;;5046990;28;20213;-63
2023/11/27 02:13:27;;;;;;;3.00;1.63;;;6.50;99.90;;;;;;5044764;28;20302;-62
2023/11/27 02:15:56;;;;;;;2.67;1.73;;;6.40;99.90;;;;;;5043039;28;20205;-61
2023/11/27 02:18:22;;;;;;;2.50;1.80;;;6.40;99.90;;;;;;5044465;28;20226;-62
2023/11/27 02:20:49;;;;;;;6.67;2.10;;;6.40;99.90;;;;;;5046591;28;20210;-63
2023/11/27 02:23:19;;;;;;;4.07;1.60;;;6.50;99.90;;;;;;5045547;28;20225;-64
2023/11/27 02:25:46;;;;;;;2.43;1.80;;;6.50;99.90;;;;;;5042859;28;20202;-62
2023/11/27 02:28:13;;;;;;;2.67;1.70;;;6.40;99.90;;;;;;5043088;28;20213;-62
2023/11/27 02:30:39;;;;;;;3.83;1.90;;;6.40;99.90;;;;;;5046376;28;20201;-63
2023/11/27 02:33:06;;;;;;;2.33;1.80;;;6.30;99.90;;;;;;5046208;28;20229;-62
2023/11/27 02:35:33;;;;;;;2.13;1.67;;;6.30;99.90;;;;;;5043303;28;20217;-62
2023/11/27 02:38:01;;;;;;;1.70;1.53;;;6.20;99.90;;;;;;5042873;28;20680;-63
2023/11/27 02:40:30;;;;;;;2.37;1.50;;;6.20;99.90;;;;;;5044870;28;20229;-62
2023/11/27 02:42:56;;;;;;;2.37;1.73;;;6.20;99.90;;;;;;5046423;28;20230;-62
2023/11/27 02:45:23;;;;;;;2.37;1.80;;;6.10;99.90;;;;;;5044497;28;20232;-62
2023/11/27 02:47:51;;;;;;;3.67;1.50;;;6.10;99.90;;;;;;5042920;28;20214;-62
2023/11/27 02:50:18;;;;;;;2.90;1.70;;;6.20;99.90;;;;;;5043127;28;20202;-62
2023/11/27 02:52:45;;;;;;;2.33;1.57;;;6.30;99.90;;;;;;5046268;28;20252;-62
2023/11/27 02:55:12;;;;;;;2.07;1.40;;;6.30;99.90;;;;;;5046085;28;20262;-62
2023/11/27 02:57:40;;;;;;;2.37;1.60;;;6.40;99.90;;;;;;5045682;28;20680;-62
2023/11/27 03:00:08;;;;;;;2.80;1.60;;;6.40;99.90;;;;;;5045695;28;20271;-62
2023/11/27 03:02:34;;;;;;;4.70;2.17;;;6.40;99.90;;;;;;5042607;28;20312;-63
2023/11/27 03:05:01;;;;;;;3.93;1.87;;;6.30;99.90;;;;;;5042278;28;20217;-62
2023/11/27 03:07:28;;;;;;;3.83;1.83;;;6.30;99.90;;;;;;5044286;28;20218;-63
2023/11/27 03:09:55;;;;;;;2.87;1.77;;;6.40;99.90;;;;;;5045995;28;20202;-63
2023/11/27 03:12:21;;;;;;;3.03;1.73;;;6.40;99.90;;;;;;5044290;28;20229;-62
2023/11/27 03:14:49;;;;;;;3.13;1.90;;;6.50;99.90;;;;;;5042101;28;20207;-64
2023/11/27 03:17:17;;;;;;;4.07;1.80;;;6.50;99.90;;;;;;5042111;28;20202;-62
2023/11/27 03:19:44;;;;;;;2.77;1.70;;;6.50;99.90;;;;;;5049188;28;20364;-62
2023/11/27 03:22:11;;;;;;;3.27;1.80;;;6.50;99.90;;;;;;5041964;28;20719;-63
2023/11/27 03:24:37;;;;;;;2.97;1.80;;;6.40;99.90;;;;;;5045254;28;20299;-62
2023/11/27 03:27:05;;;;;;;2.27;1.67;;;6.40;99.90;;;;;;5045488;28;20562;-63
2023/11/27 03:29:32;;;;;;;2.17;1.33;;;6.30;99.90;;;;;;5042931;28;20209;-61
2023/11/27 03:32:00;;;;;;;2.70;1.60;;;6.40;99.90;;;;;;5041608;28;20238;-62
2023/11/27 03:34:27;;;;;;;3.80;1.70;;;6.50;99.90;;;;;;5043452;28;20232;-61
2023/11/27 03:36:53;;;;;;;3.97;1.53;;;6.60;99.90;;;;;;5044798;28;20671;-62
2023/11/27 03:39:20;;;;;;;1.67;1.50;;;6.70;99.90;;;;;;5044241;28;20244;-63
2023/11/27 03:41:47;;;;;;;3.23;1.73;;;6.80;99.90;;;;;;5041550;28;20217;-63
2023/11/27 03:44:13;;;;;;;2.00;1.50;;;6.80;99.90;;;;;;5041701;28;20206;-63
2023/11/27 03:46:40;;;;;;;3.67;1.67;;;6.90;99.90;;;;;;5041633;28;20206;-64
2023/11/27 03:49:08;;;;;;;2.73;1.77;;;6.90;99.90;;;;;;5041701;28;20210;-61
2023/11/27 03:51:35;;;;;;;3.00;1.70;;;7.00;99.90;;;;;;5044216;28;20214;-62
2023/11/27 03:54:01;;;;;;;3.73;1.80;;;7.00;99.90;;;;;;5044890;28;20206;-62
2023/11/27 03:56:28;;;;;;;2.20;1.73;;;7.00;99.90;;;;;;5042593;28;20213;-63
2023/11/27 03:58:55;;;;;;;2.33;1.70;;;7.10;99.90;;;;;;5041228;28;20234;-61
2023/11/27 04:01:21;;;;;;;2.40;1.67;;;7.10;99.90;;;;;;5041684;28;20677;-63
2023/11/27 04:03:48;;;;;;;2.00;1.53;;;7.20;99.90;;;;;;5044672;28;20221;-63
2023/11/27 04:06:24;;;;;;;4.20;1.80;;;7.20;99.90;;;;;;5044297;28;20633;-63
2023/11/27 04:08:50;;;;;;;5.37;2.10;;;7.20;99.90;;;;;;5037984;28;20223;-63
2023/11/27 04:11:18;;;;;;;4.60;1.73;;;7.30;99.90;;;;;;5043983;28;20596;-62
2023/11/27 04:13:45;;;;;;;2.00;1.80;;;7.30;99.90;;;;;;5069872;22;20252;-57
2023/11/27 04:16:11;;;;;;;1.57;1.47;;;7.30;99.90;;;;;;5052330;28;20266;-56
2023/11/27 04:18:38;;;;;;;2.13;1.43;;;7.30;99.90;;;;;;5063345;28;20212;-57
2023/11/27 04:21:06;;;;;;;3.70;1.43;;;7.20;99.90;;;;;;5063795;28;20639;-58
2023/11/27 04:23:34;;;;;;;2.23;1.60;;;7.20;99.90;;;;;;5061261;28;20247;-58
2023/11/27 04:26:00;;;;;;;3.10;1.97;;;7.10;99.90;;;;;;5051721;28;20206;-57
2023/11/27 04:28:27;;;;;;;3.30;1.67;;;7.00;99.90;;;;;;5061912;28;20206;-58
2023/11/27 04:30:54;;;;;;;8.07;4.80;;;6.90;99.90;;;;;;5063326;28;20205;-58
2023/11/27 04:33:20;;;;;;;14.93;9.47;;;6.90;99.90;;;;;;5062835;28;20271;-58
2023/11/27 04:35:47;;;;;;;10.63;6.60;;;6.80;99.90;;;;;;5051853;28;20216;-57
2023/11/27 04:38:14;;;;;;;10.13;6.60;;;6.80;99.90;;;;;;5060317;28;20217;-58
2023/11/27 04:40:42;;;;;;;5.33;2.90;;;6.80;99.90;;;;;;5051525;28;20221;-58
2023/11/27 04:43:10;;;;;;;4.50;2.60;;;6.70;99.90;;;;;;5060431;28;20269;-57
2023/11/27 04:45:37;;;;;;;4.33;2.40;;;6.60;99.90;;;;;;5051826;28;20214;-58
2023/11/27 04:48:04;;;;;;;3.57;2.60;;;6.60;99.90;;;;;;5060353;28;20202;-58
2023/11/27 04:50:30;;;;;;;3.60;2.23;;;6.70;99.90;;;;;;5061935;28;20202;-57
2023/11/27 04:52:57;;;;;;;4.00;2.10;;;6.70;99.90;;;;;;5063375;28;20220;-60
2023/11/27 04:55:24;;;;;;;2.77;1.73;;;6.80;99.90;;;;;;5062069;28;20488;-59
2023/11/27 04:57:52;;;;;;;2.17;1.70;;;6.80;99.90;;;;;;5051983;28;20205;-57
2023/11/27 05:00:19;;;;;;;2.10;1.70;;;6.80;99.90;;;;;;5060323;28;20244;-56
2023/11/27 05:02:45;;;;;;;4.33;2.70;;;6.80;99.90;;;;;;5063131;28;20289;-57
2023/11/27 05:05:14;;;;;;;3.53;2.30;;;6.90;99.90;;;;;;5063426;28;20212;-58
2023/11/27 05:07:41;;;;;;;3.50;3.00;;;6.90;99.90;;;;;;5059643;28;20255;-57
2023/11/27 05:10:08;;;;;;;5.23;3.20;;;6.90;99.90;;;;;;5051629;28;20201;-57
2023/11/27 05:12:35;;;;;;;2.23;2.03;;;6.90;99.90;;;;;;5051078;28;20233;-58
2023/11/27 05:15:04;;;;;;;3.13;2.17;;;6.80;99.90;;;;;;5059853;28;20635;-58
2023/11/27 05:17:30;;;;;;;3.57;2.80;;;6.80;99.90;;;;;;5051175;28;20582;-58
2023/11/27 05:19:57;;;;;;;3.43;1.93;;;6.70;99.90;;;;;;5059420;28;20707;-58
2023/11/27 05:22:24;;;;;;;6.73;4.40;;;6.70;99.90;;;;;;5050993;28;20232;-58
2023/11/27 05:24:51;;;;;;;3.03;1.73;;;6.70;99.90;;;;;;5059439;28;20292;-58
2023/11/27 05:27:18;;;;;;;5.07;1.90;;;6.70;99.90;;;;;;5050939;28;20209;-56
2023/11/27 05:29:45;;;;;;;2.63;2.00;;;6.60;99.90;;;;;;5059432;28;20232;-58
2023/11/27 05:32:13;;;;;;;3.17;2.13;;;6.60;99.90;;;;;;5051110;28;20214;-57
2023/11/27 05:34:39;;;;;;;4.67;2.00;;;6.60;99.90;;;;;;5062183;28;20596;-56
2023/11/27 05:37:07;;;;;;;4.10;2.10;;;6.50;99.90;;;;;;5062341;28;20216;-58
2023/11/27 05:39:35;;;;;;;3.60;2.43;;;6.50;99.90;;;;;;5060496;28;20315;-57
2023/11/27 05:42:02;;;;;;;5.70;2.60;;;6.40;99.90;;;;;;5050689;28;20304;-57
2023/11/27 05:44:29;;;;;;;3.30;1.77;;;6.40;99.90;;;;;;5060207;28;20209;-57
2023/11/27 05:46:55;;;;;;;2.50;1.70;;;6.40;99.90;;;;;;5062328;28;20209;-58
2023/11/27 05:49:24;;;;;;;4.97;2.47;;;6.30;99.90;;;;;;5061626;28;20201;-58
2023/11/27 05:51:51;;;;;;;3.50;2.10;;;6.30;99.90;;;;;;5050941;28;20205;-58
2023/11/27 05:54:18;;;;;;;5.40;2.63;;;6.30;99.90;;;;;;5059165;28;20239;-57
2023/11/27 05:56:45;;;;;;;3.43;2.20;;;6.30;99.90;;;;;;5050783;28;20208;-58
2023/11/27 05:59:13;;;;;;;3.93;2.40;;;6.20;99.90;;;;;;5059058;28;20288;-57
2023/11/27 06:01:40;;;;;;;5.60;4.07;;;6.20;99.90;;;;;;5050833;28;20202;-57
2023/11/27 06:04:07;;;;;;;5.63;3.10;;;6.60;99.90;;;;;;5058919;28;20226;-57
2023/11/27 06:06:35;;;;;;;4.07;2.10;;;6.20;99.90;;;;;;5050683;28;20208;-58
2023/11/27 06:09:02;;;;;;;5.27;4.27;;;6.20;99.90;;;;;;5059048;28;20585;-57
2023/11/27 06:11:30;;;;;;;4.97;3.80;;;6.10;99.90;;;;;;5050419;28;20290;-58
2023/11/27 06:13:58;;;;;;;4.53;3.77;;;6.10;99.90;;;;;;5058690;28;20222;-57
2023/11/27 06:16:25;;;;;;;2.43;1.90;;;6.20;99.90;;;;;;5050151;28;20214;-57
2023/11/27 06:18:52;;;;;;;3.30;2.03;;;6.10;99.90;;;;;;5050939;28;20232;-57
2023/11/27 06:21:18;;;;;;;4.83;2.13;;;6.20;99.90;;;;;;5058566;28;20727;-57
2023/11/27 06:23:46;;;;;;;3.30;2.00;;;6.10;99.90;;;;;;5050794;28;20223;-57
2023/11/27 06:26:13;;;;;;;3.00;2.10;;;6.10;99.90;;;;;;5050316;28;20209;-57
2023/11/27 06:28:41;;;;;;;3.63;2.10;;;6.10;99.90;;;;;;5061617;28;20216;-57
2023/11/27 06:31:08;;;;;;;2.33;2.00;;;6.00;99.90;;;;;;5062036;28;20685;-57
2023/11/27 06:33:35;;;;;;;4.00;3.00;;;6.00;99.90;;;;;;5059519;28;20752;-57
2023/11/27 06:36:01;;;;;;;4.93;2.93;;;6.00;99.90;;;;;;5050196;28;20581;-57
2023/11/27 06:38:28;;;;;;;2.93;1.90;;;6.00;99.90;;;;;;5059833;28;20622;-56
2023/11/27 06:40:56;;;;;;;5.60;3.27;;;5.90;99.90;;;;;;5061804;28;20768;-57
2023/11/27 06:43:24;;;;;;;4.10;3.13;;;6.00;99.90;;;;;;5061578;28;20217;-57
2023/11/27 06:45:52;;;;;;;5.07;2.43;;;6.10;99.90;;;;;;5050162;28;20217;-56
2023/11/27 06:48:19;;;;;;;2.77;2.27;;;6.10;99.90;;;;;;5058484;28;20326;-60
2023/11/27 06:50:46;;;;;;;3.73;2.60;;;6.20;99.90;;;;;;5050112;28;20205;-57
2023/11/27 06:53:12;;;;;;;7.57;4.80;;;6.10;99.90;;;;;;5049704;28;20332;-57
2023/11/27 06:55:39;;;;;;;4.60;2.80;;;6.10;99.90;;;;;;5062861;28;20335;-57
2023/11/27 06:58:07;;;;;;;5.90;3.60;;;6.10;99.90;;;;;;5065448;28;20209;-57
2023/11/27 07:00:34;;;;;;;3.83;2.60;;;6.10;99.90;;;;;;5063376;28;20231;-56
2023/11/27 07:03:01;;;;;;;6.23;3.67;;;6.10;99.90;;;;;;5053868;28;20218;-56
2023/11/27 07:05:28;;;;;;;5.03;3.60;;;6.20;99.90;;;;;;5062986;28;20693;-56
2023/11/27 07:07:54;;;;;;;4.90;3.63;;;6.30;99.90;;;;;;5065423;28;20224;-56
2023/11/27 07:10:21;;;;;;;10.20;4.10;;;6.30;99.90;;;;;;5064982;28;20220;-57
2023/11/27 07:12:48;;;;;;;5.70;3.10;;;6.40;99.90;;;;;;5053495;28;20225;-57
2023/11/27 07:15:16;;;;;;;6.20;4.03;;;6.50;99.90;;;;;;5061756;28;20201;-57
2023/11/27 07:17:44;;;;;;;4.17;3.20;;;6.50;99.90;;;;;;5053426;28;20201;-56
2023/11/27 07:20:17;;;;;;;7.63;4.50;;;6.60;99.90;;;;;;5053486;28;20236;-56
2023/11/27 07:22:44;;;;;;;4.53;2.77;;;6.60;99.90;;;;;;5064522;28;20706;-56
2023/11/27 07:25:13;;;;;;;4.07;2.50;;;6.60;99.90;;;;;;5065062;28;20258;-56
2023/11/27 07:27:40;;;;;;;3.53;2.60;;;6.60;99.90;;;;;;5062544;28;20288;-56
2023/11/27 07:30:08;;;;;;;5.57;2.80;;;6.70;99.90;;;;;;5053703;28;20229;-56
2023/11/27 07:32:36;;;;;;;3.87;2.40;;;6.70;99.90;;;;;;5063638;28;20348;-56
2023/11/27 07:35:02;;;;;;;3.23;2.10;;;6.70;99.90;;;;;;5064826;28;20238;-56
2023/11/27 07:37:29;;;;;;;3.63;2.67;;;6.60;99.90;;;;;;5063304;28;20204;-60
2023/11/27 07:39:56;;;;;;;4.20;2.40;;;6.60;99.90;;;;;;5052785;28;20312;-57
2023/11/27 07:42:23;;;;;;;3.93;2.47;;;6.60;99.90;;;;;;5061463;28;20225;-57
2023/11/27 07:44:50;;;;;;;4.73;2.43;;;6.70;99.90;;;;;;5064606;28;20583;-56
2023/11/27 07:47:18;;;;;;;4.40;3.03;;;6.70;99.90;;;;;;5064583;28;20204;-57
2023/11/27 07:49:46;;;;;;;3.53;2.50;;;6.80;99.90;;;;;;5061284;28;20198;-57
2023/11/27 07:52:13;;;;;;;4.27;2.43;;;6.90;99.90;;;;;;5052872;28;20249;-57
2023/11/27 07:54:41;;;;;;;4.07;2.87;;;7.00;99.90;;;;;;5063743;28;20626;-57
2023/11/27 07:57:08;;;;;;;4.20;2.37;;;7.10;99.90;;;;;;5064753;28;20211;-56
2023/11/27 07:59:35;;;;;;;4.47;2.50;;;7.20;99.90;;;;;;5062880;28;20204;-57
2023/11/27 08:02:01;;;;;;;4.50;2.70;;;7.20;99.90;;;;;;5052614;28;20822;-57
2023/11/27 08:04:32;;;;;;;3.07;2.37;;;7.30;99.90;;;;;;5061800;28;20202;-57
2023/11/27 08:07:00;;;;;;;3.60;2.43;;;7.40;99.90;;;;;;5064044;28;20205;-57
2023/11/27 08:09:27;;;;;;;4.43;2.40;;;7.50;99.90;;;;;;5063384;28;20537;-57
2023/11/27 08:11:54;;;;;;;4.93;2.57;;;7.50;99.90;;;;;;5052758;28;20635;-57
2023/11/27 08:14:21;;;;;;;3.50;2.33;;;7.60;99.90;;;;;;5060667;28;20292;-56
2023/11/27 08:16:48;;;;;;;4.50;2.27;;;7.70;99.90;;;;;;5052480;28;20756;-56
2023/11/27 08:19:16;;;;;;;9.50;3.90;;;7.70;99.90;;;;;;5052568;28;20630;-56
2023/11/27 08:21:44;;;;;;;7.43;2.50;;;7.70;99.90;;;;;;5063236;28;20229;-56
2023/11/27 08:24:13;;;;;;;5.53;3.20;;;7.70;99.90;;;;;;5064312;28;20217;-56
2023/11/27 08:26:40;;;;;;;4.63;2.40;;;7.70;99.90;;;;;;5061525;28;20241;-56
2023/11/27 08:29:07;;;;;;;3.73;2.10;;;7.80;99.90;;;;;;5057946;28;20220;-57
2023/11/27 08:31:34;;;;;;;3.93;2.10;;;7.90;99.90;;;;;;5063711;28;20198;-56
2023/11/27 08:34:03;;;;;;;3.93;2.30;;;8.00;99.90;;;;;;5070699;28;20225;-56
2023/11/27 08:36:31;;;;;;;4.37;2.30;;;8.10;99.90;;;;;;5062550;28;20241;-57
2023/11/27 08:38:58;;;;;;;5.30;2.10;;;8.20;99.90;;;;;;5068356;28;20205;-57
2023/11/27 08:41:26;;;;;;;16.20;9.23;;;8.30;99.90;;;;;;5064046;28;20228;-56
2023/11/27 08:43:53;;;;;;;9.37;5.77;;;8.30;99.90;;;;;;5064068;28;20232;-56
2023/11/27 08:46:20;;;;;;;7.90;2.37;;;8.30;99.90;;;;;;5052644;28;20202;-57
2023/11/27 08:48:46;;;;;;;3.60;2.20;;;8.30;99.90;;;;;;5058149;28;20429;-59
2023/11/27 08:51:13;;;;;;;4.03;2.13;;;8.30;99.90;;;;;;5058249;28;20205;-60
2023/11/27 08:53:41;;;;;;;6.30;2.30;;;8.30;99.90;;;;;;5060927;28;20721;-59
2023/11/27 08:56:10;;;;;;;2.43;2.13;;;8.30;99.90;;;;;;5051525;28;20208;-59
2023/11/27 08:58:39;;;;;;;5.73;2.20;;;8.30;99.90;;;;;;5061195;28;20206;-59
2023/11/27 09:01:06;;;;;;;5.43;2.60;;;8.40;99.90;;;;;;5063047;28;20212;-60
2023/11/27 09:03:33;;;;;;;4.97;2.57;;;8.50;99.90;;;;;;5061934;28;20224;-59
2023/11/27 09:06:00;;;;;;;4.73;2.33;;;8.60;99.90;;;;;;5051213;28;20576;-59
2023/11/27 09:08:26;;;;;;;5.57;2.53;;;8.60;99.90;;;;;;5059999;28;20210;-59
2023/11/27 09:10:53;;;;;;;8.17;2.57;;;8.60;99.90;;;;;;5062773;28;20609;-59
2023/11/27 09:13:20;;;;;;;6.83;2.67;;;8.50;99.90;;;;;;5063147;28;20247;-59
2023/11/27 09:15:48;;;;;;;5.00;2.60;;;8.50;99.90;;;;;;5059862;28;20202;-59
2023/11/27 09:18:14;;;;;;;5.33;2.97;;;8.50;99.90;;;;;;5051073;28;20205;-58
2023/11/27 09:20:41;;;;;;;5.47;2.40;;;8.50;99.90;;;;;;5061600;28;20229;-59
2023/11/27 09:23:07;;;;;;;5.73;1.77;;;8.50;99.90;;;;;;5062295;28;20406;-59
2023/11/27 09:25:35;;;;;;;4.87;2.00;;;8.50;99.90;;;;;;5061313;28;20204;-60
2023/11/27 09:28:02;;;;;;;3.40;1.90;;;8.40;99.90;;;;;;5051116;28;20202;-61
2023/11/27 09:30:29;;;;;;;17.40;3.10;;;8.40;99.90;;;;;;5050816;28;20198;-61
2023/11/27 09:32:57;;;;;;;10.00;3.07;;;8.60;99.90;;;;;;5059125;28;20225;-60
2023/11/27 09:35:24;;;;;;;10.67;2.63;;;8.80;99.90;;;;;;5050819;28;20209;-62
2023/11/27 09:37:50;;;;;;;28.83;4.30;;;8.90;99.90;;;;;;5059301;28;20197;-62
2023/11/27 09:40:19;;;;;;;4.73;1.63;;;9.00;99.90;;;;;;5051043;28;20198;-59
2023/11/27 09:42:47;;;;;;;3.73;1.90;;;9.10;99.90;;;;;;5061834;28;20229;-59
2023/11/27 09:45:16;;;;;;;4.67;3.40;;;9.10;99.90;;;;;;5062155;28;20667;-60
2023/11/27 09:47:43;;;;;;;2.70;1.93;;;9.20;99.90;;;;;;5059901;28;20214;-58
2023/11/27 09:50:13;;;;;;;4.73;2.03;;;9.40;99.90;;;;;;5050966;28;20209;-57
2023/11/27 09:52:52;;;;;;;3.67;1.80;;;9.50;99.90;;;;;;5050809;28;20718;-57
2023/11/27 09:55:20;;;;;;;3.77;2.13;;;9.50;99.90;;;;;;5058977;28;20205;-57
2023/11/27 09:57:48;;;;;;;7.70;2.40;;;9.40;99.90;;;;;;5051313;28;20198;-57
2023/11/27 10:00:17;;;;;;;7.83;2.27;;;9.60;99.90;;;;;;5059031;28;20275;-58
2023/11/27 10:02:47;;;;;;;7.03;2.23;;;9.70;99.90;;;;;;5061616;28;20309;-57
2023/11/27 10:05:16;;;;;;;3.43;1.87;;;9.80;99.90;;;;;;5062304;28;20232;-60
2023/11/27 10:07:46;;;;;;;4.57;2.03;;;10.00;99.90;;;;;;5059418;28;20209;-59
2023/11/27 10:10:15;;;;;;;4.20;2.07;;;10.10;99.90;;;;;;5050602;28;20213;-59
2023/11/27 10:12:45;;;;;;;7.90;2.50;;;10.20;99.90;;;;;;5090516;22;20292;-63
2023/11/27 10:15:12;;;;;;;4.10;1.97;;;10.30;99.90;;;;;;5081963;28;20221;-62
2023/11/27 10:17:41;;;;;;;4.40;2.23;;;10.30;99.90;;;;;;5095362;28;20242;-61
2023/11/27 10:20:12;;;;;;;2.77;1.60;;;10.20;99.90;;;;;;5090820;28;20200;-62
2023/11/27 10:22:41;;;;;;;2.53;2.07;;;10.20;99.90;;;;;;5089272;28;20236;-67
2023/11/27 10:25:08;;;;;;;2.77;1.80;;;10.30;99.90;;;;;;5070608;28;20227;-63
2023/11/27 10:27:35;;;;;;;2.80;1.87;;;10.40;99.90;;;;;;5079761;28;20521;-64
2023/11/27 10:30:02;;;;;;;3.00;1.70;;;10.50;99.90;;;;;;5080164;28;20212;-64
2023/11/27 10:32:29;;;;;;;2.03;1.57;;;10.50;99.90;;;;;;5074170;28;20221;-64
2023/11/27 10:34:58;;;;;;;4.17;2.13;;;10.50;99.90;;;;;;5074666;28;20211;-65
2023/11/27 10:37:25;;;;;;;3.80;2.40;;;10.50;99.90;;;;;;5074321;28;20201;-65
2023/11/27 10:39:57;;;;;;;5.87;4.20;;;10.50;99.90;;;;;;5074278;28;20209;-66
2023/11/27 10:42:29;;;;;;;7.87;2.47;;;10.60;99.90;;;;;;5082545;28;20704;-66
2023/11/27 10:44:55;;;;;;;4.30;2.20;;;10.60;99.90;;;;;;5075052;28;20723;-65
2023/11/27 10:47:23;;;;;;;4.50;3.17;;;10.60;99.90;;;;;;5073843;28;20216;-65
2023/11/27 10:49:53;;;;;;;16.20;8.83;;;10.70;99.90;;;;;;5073810;28;20228;-63
2023/11/27 10:52:21;;;;;;;3.53;2.37;;;10.80;99.90;;;;;;5074334;28;20662;-61
2023/11/27 10:54:50;;;;;;;2.90;2.07;;;10.90;99.90;;;;;;5085764;28;20211;-60
2023/11/27 10:57:20;;;;;;;3.90;2.07;;;10.90;99.90;;;;;;5085898;28;20211;-60
2023/11/27 10:59:48;;;;;;;4.27;2.10;;;10.90;99.90;;;;;;5083318;28;20287;-61
2023/11/27 11:02:15;;;;;;;3.33;1.77;;;11.00;99.90;;;;;;5082717;28;20221;-61
2023/11/27 11:04:51;;;;;;;5.10;1.93;;;11.00;99.90;;;;;;5084430;28;20208;-60
2023/11/27 11:07:22;;;;;;;5.57;2.10;;;11.00;99.90;;;;;;5086129;28;20204;-62
2023/11/27 11:09:50;;;;;;;5.30;1.90;;;11.00;99.90;;;;;;5083113;28;20209;-60
2023/11/27 11:12:23;;;;;;;2.27;1.67;;;11.10;99.90;;;;;;5082475;28;20204;-60
2023/11/27 11:14:51;;;;;;;1.93;1.60;;;11.30;99.90;;;;;;5085913;28;20311;-60
2023/11/27 11:17:29;;;;;;;3.90;1.60;;;11.40;99.90;;;;;;5085635;28;20669;-60
2023/11/27 11:20:13;;;;;;;3.33;2.23;;;11.50;99.90;;;;;;5082585;28;20204;-59
2023/11/27 11:22:52;;;;;;;2.00;1.60;;;11.70;99.90;;;;;;5083544;28;20710;-60
2023/11/27 11:25:28;;;;;;;2.77;1.77;;;11.70;99.90;;;;;;5086137;28;20208;-61
2023/11/27 11:28:05;;;;;;;2.53;1.80;;;11.70;99.90;;;;;;5085776;28;20211;-61
2023/11/27 11:30:34;;;;;;;3.83;1.73;;;11.60;99.90;;;;;;5085190;28;20633;-59
2023/11/27 11:33:05;;;;;;;7.97;5.47;;;11.50;99.90;;;;;;5081735;28;20244;-61
2023/11/27 11:35:34;;;;;;;6.53;4.40;;;11.50;99.90;;;;;;5082863;28;20201;-61
2023/11/27 11:38:00;;;;;;;3.77;2.73;;;11.40;99.90;;;;;;5085611;28;20224;-61
2023/11/27 11:40:40;;;;;;;2.90;2.00;;;11.40;99.90;;;;;;5084675;28;20203;-60
2023/11/27 11:43:10;;;;;;;4.03;2.00;;;11.40;99.90;;;;;;5073361;28;20217;-61
2023/11/27 11:45:39;;;;;;;4.03;1.63;;;11.30;99.90;;;;;;5072733;28;20689;-62
2023/11/27 11:48:09;;;;;;;3.63;1.70;;;11.40;99.90;;;;;;5073323;28;20268;-61
2023/11/27 11:50:40;;;;;;;1.93;1.50;;;11.20;99.90;;;;;;5073249;28;20201;-61
2023/11/27 11:53:37;;;;;;;3.03;1.90;;;11.30;99.90;;;;;;5072760;28;20228;-61
2023/11/27 11:56:19;;;;;;;3.53;1.93;;;11.30;99.90;;;;;;5072862;28;20209;-61
2023/11/27 11:58:50;;;;;;;4.93;2.20;;;11.30;99.90;;;;;;5073342;28;20254;-61
2023/11/27 12:01:18;;;;;;;4.73;1.70;;;11.20;99.90;;;;;;5073101;28;20197;-61
2023/11/27 12:03:46;;;;;;;1.83;1.53;;;11.10;99.90;;;;;;5072924;28;20728;-60
2023/11/27 12:06:14;;;;;;;2.50;1.83;;;11.00;99.90;;;;;;5072787;28;20258;-61
2023/11/27 12:08:45;;;;;;;2.00;1.60;;;10.90;99.90;;;;;;5072672;28;20201;-61
2023/11/27 12:11:13;;;;;;;5.47;1.90;;;10.80;99.90;;;;;;5073027;28;20255;-61
2023/11/27 12:13:43;;;;;;;2.97;1.60;;;10.60;99.90;;;;;;5072479;28;20319;-61
2023/11/27 12:16:12;;;;;;;8.67;5.33;;;10.50;99.90;;;;;;5072422;28;20209;-61
2023/11/27 12:18:42;;;;;;;2.33;1.57;;;10.30;99.90;;;;;;5072375;28;20213;-60
2023/11/27 12:21:11;;;;;;;2.67;1.70;;;10.20;99.90;;;;;;5072306;28;20282;-60
2023/11/27 12:23:40;;;;;;;5.77;2.53;;;10.10;99.90;;;;;;5072452;28;20653;-61
2023/11/27 12:26:08;;;;;;;6.23;2.27;;;10.10;99.90;;;;;;5072492;28;20236;-61
2023/11/27 12:28:36;;;;;;;4.17;1.80;;;10.00;99.90;;;;;;5072182;28;20197;-61
2023/11/27 12:31:03;;;;;;;3.53;2.27;;;10.00;99.90;;;;;;5072108;28;20263;-60
2023/11/27 12:33:33;;;;;;;4.53;1.90;;;10.10;99.90;;;;;;5072215;28;20235;-61
2023/11/27 12:36:04;;;;;;;2.97;1.37;;;10.00;99.90;;;;;;5072610;28;20209;-61
2023/11/27 12:38:34;;;;;;;4.47;2.33;;;10.00;99.90;;;;;;5072135;28;20679;-59
2023/11/27 12:41:06;;;;;;;2.70;1.80;;;9.90;99.90;;;;;;5072181;28;20288;-61
2023/11/27 12:43:35;;;;;;;4.10;2.20;;;9.90;99.90;;;;;;5088534;28;20224;-61
2023/11/27 12:46:05;;;;;;;5.70;2.87;;;9.90;99.90;;;;;;5079992;28;20228;-61
2023/11/27 12:48:35;;;;;;;5.53;2.10;;;9.80;99.90;;;;;;5080242;28;20300;-61
2023/11/27 12:51:02;;;;;;;2.13;1.60;;;9.90;99.90;;;;;;5083778;28;20208;-61
2023/11/27 12:53:29;;;;;;;2.87;1.93;;;9.80;99.90;;;;;;5083168;28;20244;-62
2023/11/27 12:55:55;;;;;;;1.43;1.23;;;9.60;99.90;;;;;;5080087;28;20211;-60
2023/11/27 12:58:23;;;;;;;3.17;1.50;;;9.50;99.90;;;;;;5080089;28;20197;-60